sensor_id;sensor_type;location;lat;lon;timestamp;P1;durP1;ratioP1;P2;durP2;ratioP2
20976;SDS011;10647;51.016;3.720;2022-08-21T00:00:34;9.40;;;2.90;;
20976;SDS011;10647;51.016;3.720;2022-08-21T00:03:05;8.30;;;2.93;;
20976;SDS011;10647;51.016;3.720;2022-08-21T00:05:36;8.00;;;3.00;;
20976;SDS011;10647;51.016;3.720;2022-08-21T00:15:42;8.40;;;2.43;;
20976;SDS011;10647;51.016;3.720;2022-08-21T00:18:10;11.57;;;2.50;;
20976;SDS011;10647;51.016;3.720;2022-08-21T00:20:44;9.23;;;2.93;;
20976;SDS011;10647;51.016;3.720;2022-08-21T00:23:13;7.33;;;2.47;;
20976;SDS011;10647;51.016;3.720;2022-08-21T00:25:44;10.53;;;2.53;;
20976;SDS011;10647;51.016;3.720;2022-08-21T00:28:15;8.37;;;2.70;;
20976;SDS011;10647;51.016;3.720;2022-08-21T00:30:43;11.10;;;2.73;;
20976;SDS011;10647;51.016;3.720;2022-08-21T00:33:11;8.37;;;2.70;;
20976;SDS011;10647;51.016;3.720;2022-08-21T00:35:41;11.43;;;3.10;;
20976;SDS011;10647;51.016;3.720;2022-08-21T00:38:16;5.17;;;2.27;;
20976;SDS011;10647;51.016;3.720;2022-08-21T00:40:51;8.00;;;2.33;;
20976;SDS011;10647;51.016;3.720;2022-08-21T00:43:23;8.57;;;2.20;;
20976;SDS011;10647;51.016;3.720;2022-08-21T00:45:51;11.53;;;2.47;;
20976;SDS011;10647;51.016;3.720;2022-08-21T00:50:54;9.23;;;2.43;;
20976;SDS011;10647;51.016;3.720;2022-08-21T00:53:27;9.10;;;2.27;;
20976;SDS011;10647;51.016;3.720;2022-08-21T00:56:02;13.07;;;2.50;;
20976;SDS011;10647;51.016;3.720;2022-08-21T00:58:39;11.17;;;2.70;;
20976;SDS011;10647;51.016;3.720;2022-08-21T01:01:14;10.83;;;2.40;;
20976;SDS011;10647;51.016;3.720;2022-08-21T01:06:15;10.93;;;2.50;;
20976;SDS011;10647;51.016;3.720;2022-08-21T01:09:09;13.03;;;2.43;;
20976;SDS011;10647;51.016;3.720;2022-08-21T01:11:37;12.77;;;2.60;;
20976;SDS011;10647;51.016;3.720;2022-08-21T01:14:08;9.30;;;2.50;;
20976;SDS011;10647;51.016;3.720;2022-08-21T01:16:40;9.87;;;2.50;;
20976;SDS011;10647;51.016;3.720;2022-08-21T01:19:12;9.70;;;2.60;;
20976;SDS011;10647;51.016;3.720;2022-08-21T01:21:47;8.67;;;2.17;;
20976;SDS011;10647;51.016;3.720;2022-08-21T01:26:52;9.80;;;2.97;;
20976;SDS011;10647;51.016;3.720;2022-08-21T01:29:29;11.27;;;2.70;;
20976;SDS011;10647;51.016;3.720;2022-08-21T01:34:42;7.63;;;2.90;;
20976;SDS011;10647;51.016;3.720;2022-08-21T01:39:49;9.33;;;2.90;;
20976;SDS011;10647;51.016;3.720;2022-08-21T01:42:17;7.60;;;2.50;;
20976;SDS011;10647;51.016;3.720;2022-08-21T01:47:15;11.20;;;2.70;;
20976;SDS011;10647;51.016;3.720;2022-08-21T01:49:46;11.90;;;2.97;;
20976;SDS011;10647;51.016;3.720;2022-08-21T01:52:13;12.23;;;2.93;;
20976;SDS011;10647;51.016;3.720;2022-08-21T01:54:41;8.07;;;2.73;;
20976;SDS011;10647;51.016;3.720;2022-08-21T01:57:11;6.97;;;2.30;;
20976;SDS011;10647;51.016;3.720;2022-08-21T02:02:09;14.33;;;3.10;;
20976;SDS011;10647;51.016;3.720;2022-08-21T02:04:38;10.40;;;3.03;;
20976;SDS011;10647;51.016;3.720;2022-08-21T02:07:05;8.00;;;2.80;;
20976;SDS011;10647;51.016;3.720;2022-08-21T02:09:33;7.30;;;2.33;;
20976;SDS011;10647;51.016;3.720;2022-08-21T02:12:00;13.23;;;2.77;;
20976;SDS011;10647;51.016;3.720;2022-08-21T02:14:28;11.07;;;2.70;;
20976;SDS011;10647;51.016;3.720;2022-08-21T02:16:56;14.37;;;2.80;;
20976;SDS011;10647;51.016;3.720;2022-08-21T02:19:23;11.90;;;2.63;;
20976;SDS011;10647;51.016;3.720;2022-08-21T02:21:57;11.43;;;2.83;;
20976;SDS011;10647;51.016;3.720;2022-08-21T02:24:24;7.97;;;2.30;;
20976;SDS011;10647;51.016;3.720;2022-08-21T02:26:52;10.53;;;2.50;;
20976;SDS011;10647;51.016;3.720;2022-08-21T02:31:50;10.97;;;2.97;;
20976;SDS011;10647;51.016;3.720;2022-08-21T02:34:18;7.13;;;2.30;;
20976;SDS011;10647;51.016;3.720;2022-08-21T02:39:20;11.27;;;2.50;;
20976;SDS011;10647;51.016;3.720;2022-08-21T02:44:27;10.90;;;2.80;;
20976;SDS011;10647;51.016;3.720;2022-08-21T02:46:55;12.00;;;2.90;;
20976;SDS011;10647;51.016;3.720;2022-08-21T02:49:22;7.77;;;2.87;;
20976;SDS011;10647;51.016;3.720;2022-08-21T02:51:55;6.60;;;2.80;;
20976;SDS011;10647;51.016;3.720;2022-08-21T02:54:23;11.57;;;3.13;;
20976;SDS011;10647;51.016;3.720;2022-08-21T02:56:51;7.43;;;2.57;;
20976;SDS011;10647;51.016;3.720;2022-08-21T02:59:19;13.33;;;2.90;;
20976;SDS011;10647;51.016;3.720;2022-08-21T03:01:46;9.07;;;3.00;;
20976;SDS011;10647;51.016;3.720;2022-08-21T03:04:15;10.93;;;2.87;;
20976;SDS011;10647;51.016;3.720;2022-08-21T03:06:52;11.10;;;3.10;;
20976;SDS011;10647;51.016;3.720;2022-08-21T03:09:23;8.83;;;2.67;;
20976;SDS011;10647;51.016;3.720;2022-08-21T03:11:51;9.73;;;3.00;;
20976;SDS011;10647;51.016;3.720;2022-08-21T03:17:08;11.47;;;3.30;;
20976;SDS011;10647;51.016;3.720;2022-08-21T03:22:32;12.10;;;3.77;;
20976;SDS011;10647;51.016;3.720;2022-08-21T03:25:06;12.53;;;3.20;;
20976;SDS011;10647;51.016;3.720;2022-08-21T03:27:34;11.47;;;3.27;;
20976;SDS011;10647;51.016;3.720;2022-08-21T03:30:05;13.60;;;3.00;;
20976;SDS011;10647;51.016;3.720;2022-08-21T03:35:10;9.67;;;3.03;;
20976;SDS011;10647;51.016;3.720;2022-08-21T03:37:38;11.50;;;2.60;;
20976;SDS011;10647;51.016;3.720;2022-08-21T03:40:10;7.47;;;2.80;;
20976;SDS011;10647;51.016;3.720;2022-08-21T03:45:13;8.83;;;2.87;;
20976;SDS011;10647;51.016;3.720;2022-08-21T03:47:52;13.73;;;3.20;;
20976;SDS011;10647;51.016;3.720;2022-08-21T03:50:45;12.77;;;2.43;;
20976;SDS011;10647;51.016;3.720;2022-08-21T03:53:18;10.13;;;3.10;;
20976;SDS011;10647;51.016;3.720;2022-08-21T03:55:49;13.80;;;3.40;;
20976;SDS011;10647;51.016;3.720;2022-08-21T03:58:21;13.17;;;3.30;;
20976;SDS011;10647;51.016;3.720;2022-08-21T04:00:52;9.87;;;3.37;;
20976;SDS011;10647;51.016;3.720;2022-08-21T04:03:23;14.63;;;3.97;;
20976;SDS011;10647;51.016;3.720;2022-08-21T04:05:51;11.13;;;3.40;;
20976;SDS011;10647;51.016;3.720;2022-08-21T04:08:27;8.47;;;3.33;;
20976;SDS011;10647;51.016;3.720;2022-08-21T04:11:01;10.03;;;3.60;;
20976;SDS011;10647;51.016;3.720;2022-08-21T04:13:29;8.57;;;3.13;;
20976;SDS011;10647;51.016;3.720;2022-08-21T04:15:58;9.73;;;3.40;;
20976;SDS011;10647;51.016;3.720;2022-08-21T04:18:26;8.37;;;2.90;;
20976;SDS011;10647;51.016;3.720;2022-08-21T04:20:56;10.40;;;3.60;;
20976;SDS011;10647;51.016;3.720;2022-08-21T04:23:27;9.30;;;3.10;;
20976;SDS011;10647;51.016;3.720;2022-08-21T04:25:58;8.63;;;3.20;;
20976;SDS011;10647;51.016;3.720;2022-08-21T04:28:26;9.33;;;3.20;;
20976;SDS011;10647;51.016;3.720;2022-08-21T04:30:56;11.20;;;3.43;;
20976;SDS011;10647;51.016;3.720;2022-08-21T04:33:25;10.97;;;3.83;;
20976;SDS011;10647;51.016;3.720;2022-08-21T04:35:53;8.33;;;2.90;;
20976;SDS011;10647;51.016;3.720;2022-08-21T04:40:52;9.43;;;3.23;;
20976;SDS011;10647;51.016;3.720;2022-08-21T04:43:20;11.57;;;3.40;;
20976;SDS011;10647;51.016;3.720;2022-08-21T04:45:54;14.03;;;3.20;;
20976;SDS011;10647;51.016;3.720;2022-08-21T04:48:25;11.50;;;3.60;;
20976;SDS011;10647;51.016;3.720;2022-08-21T04:50:55;9.73;;;3.23;;
20976;SDS011;10647;51.016;3.720;2022-08-21T04:56:18;12.43;;;3.10;;
20976;SDS011;10647;51.016;3.720;2022-08-21T04:58:43;11.77;;;3.20;;
20976;SDS011;10647;51.016;3.720;2022-08-21T05:04:03;8.57;;;2.80;;
20976;SDS011;10647;51.016;3.720;2022-08-21T05:06:33;9.70;;;3.27;;
20976;SDS011;10647;51.016;3.720;2022-08-21T05:14:11;11.93;;;3.50;;
20976;SDS011;10647;51.016;3.720;2022-08-21T05:16:41;13.30;;;3.03;;
20976;SDS011;10647;51.016;3.720;2022-08-21T05:19:09;13.70;;;3.30;;
20976;SDS011;10647;51.016;3.720;2022-08-21T05:21:40;14.30;;;3.33;;
20976;SDS011;10647;51.016;3.720;2022-08-21T05:24:15;9.63;;;3.10;;
20976;SDS011;10647;51.016;3.720;2022-08-21T05:26:43;10.63;;;3.27;;
20976;SDS011;10647;51.016;3.720;2022-08-21T05:29:14;17.90;;;3.33;;
20976;SDS011;10647;51.016;3.720;2022-08-21T05:31:43;11.83;;;3.60;;
20976;SDS011;10647;51.016;3.720;2022-08-21T05:34:13;13.13;;;3.30;;
20976;SDS011;10647;51.016;3.720;2022-08-21T05:36:42;12.47;;;3.30;;
20976;SDS011;10647;51.016;3.720;2022-08-21T05:39:11;17.60;;;3.40;;
20976;SDS011;10647;51.016;3.720;2022-08-21T05:41:41;13.07;;;3.23;;
20976;SDS011;10647;51.016;3.720;2022-08-21T05:46:44;10.87;;;3.57;;
20976;SDS011;10647;51.016;3.720;2022-08-21T05:49:12;12.37;;;3.47;;
20976;SDS011;10647;51.016;3.720;2022-08-21T05:51:45;10.57;;;3.30;;
20976;SDS011;10647;51.016;3.720;2022-08-21T05:54:20;10.57;;;3.60;;
20976;SDS011;10647;51.016;3.720;2022-08-21T05:56:51;11.60;;;3.43;;
20976;SDS011;10647;51.016;3.720;2022-08-21T05:59:21;10.53;;;3.33;;
20976;SDS011;10647;51.016;3.720;2022-08-21T06:01:49;13.23;;;4.00;;
20976;SDS011;10647;51.016;3.720;2022-08-21T06:04:24;12.13;;;3.60;;
20976;SDS011;10647;51.016;3.720;2022-08-21T06:06:51;10.97;;;3.50;;
20976;SDS011;10647;51.016;3.720;2022-08-21T06:09:20;12.97;;;3.47;;
20976;SDS011;10647;51.016;3.720;2022-08-21T06:11:53;12.50;;;3.40;;
20976;SDS011;10647;51.016;3.720;2022-08-21T06:14:21;10.73;;;3.53;;
20976;SDS011;10647;51.016;3.720;2022-08-21T06:16:48;8.97;;;3.07;;
20976;SDS011;10647;51.016;3.720;2022-08-21T06:19:16;7.73;;;3.50;;
20976;SDS011;10647;51.016;3.720;2022-08-21T06:21:43;14.17;;;3.60;;
20976;SDS011;10647;51.016;3.720;2022-08-21T06:24:11;11.63;;;3.27;;
20976;SDS011;10647;51.016;3.720;2022-08-21T06:26:39;10.80;;;3.40;;
20976;SDS011;10647;51.016;3.720;2022-08-21T06:29:07;12.63;;;3.53;;
20976;SDS011;10647;51.016;3.720;2022-08-21T06:31:38;11.70;;;3.37;;
20976;SDS011;10647;51.016;3.720;2022-08-21T06:34:07;14.33;;;3.63;;
20976;SDS011;10647;51.016;3.720;2022-08-21T06:36:40;15.27;;;3.50;;
20976;SDS011;10647;51.016;3.720;2022-08-21T06:39:08;14.27;;;3.50;;
20976;SDS011;10647;51.016;3.720;2022-08-21T06:41:36;12.73;;;3.33;;
20976;SDS011;10647;51.016;3.720;2022-08-21T06:44:09;13.30;;;3.67;;
20976;SDS011;10647;51.016;3.720;2022-08-21T06:46:37;12.47;;;3.50;;
20976;SDS011;10647;51.016;3.720;2022-08-21T06:49:04;13.93;;;3.70;;
20976;SDS011;10647;51.016;3.720;2022-08-21T06:51:39;9.33;;;3.65;;
20976;SDS011;10647;51.016;3.720;2022-08-21T06:54:11;11.85;;;3.90;;
20976;SDS011;10647;51.016;3.720;2022-08-21T06:56:44;11.25;;;4.00;;
20976;SDS011;10647;51.016;3.720;2022-08-21T06:59:12;14.17;;;3.70;;
20976;SDS011;10647;51.016;3.720;2022-08-21T07:01:40;12.20;;;3.83;;
20976;SDS011;10647;51.016;3.720;2022-08-21T07:04:09;13.65;;;3.55;;
20976;SDS011;10647;51.016;3.720;2022-08-21T07:06:38;11.43;;;3.92;;
20976;SDS011;10647;51.016;3.720;2022-08-21T07:09:06;12.47;;;4.00;;
20976;SDS011;10647;51.016;3.720;2022-08-21T07:11:35;11.97;;;3.40;;
20976;SDS011;10647;51.016;3.720;2022-08-21T07:14:04;14.95;;;3.47;;
20976;SDS011;10647;51.016;3.720;2022-08-21T07:16:34;11.00;;;3.30;;
20976;SDS011;10647;51.016;3.720;2022-08-21T07:19:02;10.80;;;3.55;;
20976;SDS011;10647;51.016;3.720;2022-08-21T07:21:29;9.35;;;3.25;;
20976;SDS011;10647;51.016;3.720;2022-08-21T07:23:57;10.43;;;3.35;;
20976;SDS011;10647;51.016;3.720;2022-08-21T07:26:25;16.85;;;3.95;;
20976;SDS011;10647;51.016;3.720;2022-08-21T07:28:53;11.53;;;3.70;;
20976;SDS011;10647;51.016;3.720;2022-08-21T07:31:21;11.97;;;2.75;;
20976;SDS011;10647;51.016;3.720;2022-08-21T07:33:50;9.20;;;3.02;;
20976;SDS011;10647;51.016;3.720;2022-08-21T07:36:18;11.85;;;3.30;;
20976;SDS011;10647;51.016;3.720;2022-08-21T07:38:46;17.60;;;3.15;;
20976;SDS011;10647;51.016;3.720;2022-08-21T07:41:15;10.23;;;2.65;;
20976;SDS011;10647;51.016;3.720;2022-08-21T07:43:44;14.35;;;3.20;;
20976;SDS011;10647;51.016;3.720;2022-08-21T07:46:12;11.18;;;2.50;;
20976;SDS011;10647;51.016;3.720;2022-08-21T07:48:40;9.03;;;2.60;;
20976;SDS011;10647;51.016;3.720;2022-08-21T07:51:10;10.68;;;2.47;;
20976;SDS011;10647;51.016;3.720;2022-08-21T07:53:39;14.73;;;3.77;;
20976;SDS011;10647;51.016;3.720;2022-08-21T07:56:07;14.03;;;2.98;;
20976;SDS011;10647;51.016;3.720;2022-08-21T07:58:36;8.95;;;3.15;;
20976;SDS011;10647;51.016;3.720;2022-08-21T08:01:05;13.65;;;2.90;;
20976;SDS011;10647;51.016;3.720;2022-08-21T08:03:33;8.40;;;3.05;;
20976;SDS011;10647;51.016;3.720;2022-08-21T08:06:01;11.57;;;3.00;;
20976;SDS011;10647;51.016;3.720;2022-08-21T08:08:30;9.55;;;2.80;;
20976;SDS011;10647;51.016;3.720;2022-08-21T08:11:01;11.88;;;3.12;;
20976;SDS011;10647;51.016;3.720;2022-08-21T08:13:29;14.55;;;2.55;;
20976;SDS011;10647;51.016;3.720;2022-08-21T08:16:03;12.05;;;3.08;;
20976;SDS011;10647;51.016;3.720;2022-08-21T08:18:31;13.40;;;2.62;;
20976;SDS011;10647;51.016;3.720;2022-08-21T08:20:59;9.55;;;2.15;;
20976;SDS011;10647;51.016;3.720;2022-08-21T08:23:33;11.12;;;2.47;;
20976;SDS011;10647;51.016;3.720;2022-08-21T08:26:04;10.75;;;2.30;;
20976;SDS011;10647;51.016;3.720;2022-08-21T08:28:38;8.70;;;2.42;;
20976;SDS011;10647;51.016;3.720;2022-08-21T08:31:05;10.15;;;2.60;;
20976;SDS011;10647;51.016;3.720;2022-08-21T08:33:34;11.70;;;2.80;;
20976;SDS011;10647;51.016;3.720;2022-08-21T08:36:01;10.38;;;3.00;;
20976;SDS011;10647;51.016;3.720;2022-08-21T08:38:32;13.13;;;2.52;;
20976;SDS011;10647;51.016;3.720;2022-08-21T08:43:55;10.72;;;2.72;;
20976;SDS011;10647;51.016;3.720;2022-08-21T08:46:31;13.00;;;2.92;;
20976;SDS011;10647;51.016;3.720;2022-08-21T08:51:51;11.53;;;2.60;;
20976;SDS011;10647;51.016;3.720;2022-08-21T08:54:17;11.30;;;2.35;;
20976;SDS011;10647;51.016;3.720;2022-08-21T08:56:47;15.13;;;2.70;;
20976;SDS011;10647;51.016;3.720;2022-08-21T08:59:20;12.53;;;2.72;;
20976;SDS011;10647;51.016;3.720;2022-08-21T09:01:51;10.98;;;2.60;;
20976;SDS011;10647;51.016;3.720;2022-08-21T09:04:21;9.08;;;2.25;;
20976;SDS011;10647;51.016;3.720;2022-08-21T09:07:16;14.35;;;2.70;;
20976;SDS011;10647;51.016;3.720;2022-08-21T09:12:12;11.53;;;2.45;;
20976;SDS011;10647;51.016;3.720;2022-08-21T09:18:05;8.80;;;2.45;;
20976;SDS011;10647;51.016;3.720;2022-08-21T09:20:41;10.13;;;2.55;;
20976;SDS011;10647;51.016;3.720;2022-08-21T09:23:33;11.80;;;2.65;;
20976;SDS011;10647;51.016;3.720;2022-08-21T09:26:19;11.20;;;2.50;;
20976;SDS011;10647;51.016;3.720;2022-08-21T09:28:52;11.18;;;2.27;;
20976;SDS011;10647;51.016;3.720;2022-08-21T09:33:59;13.72;;;2.90;;
20976;SDS011;10647;51.016;3.720;2022-08-21T09:36:31;11.03;;;2.30;;
20976;SDS011;10647;51.016;3.720;2022-08-21T09:38:59;7.50;;;2.40;;
20976;SDS011;10647;51.016;3.720;2022-08-21T09:41:28;11.48;;;2.67;;
20976;SDS011;10647;51.016;3.720;2022-08-21T09:43:58;13.98;;;2.27;;
20976;SDS011;10647;51.016;3.720;2022-08-21T09:46:26;9.13;;;2.10;;
20976;SDS011;10647;51.016;3.720;2022-08-21T09:48:55;13.38;;;2.70;;
20976;SDS011;10647;51.016;3.720;2022-08-21T09:51:28;11.28;;;2.40;;
20976;SDS011;10647;51.016;3.720;2022-08-21T09:56:38;13.18;;;2.72;;
20976;SDS011;10647;51.016;3.720;2022-08-21T09:59:38;10.15;;;2.17;;
20976;SDS011;10647;51.016;3.720;2022-08-21T10:02:29;12.25;;;2.37;;
20976;SDS011;10647;51.016;3.720;2022-08-21T10:05:01;10.65;;;2.20;;
20976;SDS011;10647;51.016;3.720;2022-08-21T10:07:28;10.78;;;2.37;;
20976;SDS011;10647;51.016;3.720;2022-08-21T10:10:08;12.30;;;2.50;;
20976;SDS011;10647;51.016;3.720;2022-08-21T10:12:51;9.58;;;2.22;;
20976;SDS011;10647;51.016;3.720;2022-08-21T10:19:19;9.23;;;2.00;;
20976;SDS011;10647;51.016;3.720;2022-08-21T10:21:11;11.78;;;2.12;;
20976;SDS011;10647;51.016;3.720;2022-08-21T10:23:54;10.90;;;2.02;;
20976;SDS011;10647;51.016;3.720;2022-08-21T10:29:20;12.63;;;2.20;;
20976;SDS011;10647;51.016;3.720;2022-08-21T10:32:10;10.20;;;2.02;;
20976;SDS011;10647;51.016;3.720;2022-08-21T10:40:15;10.55;;;2.10;;
20976;SDS011;10647;51.016;3.720;2022-08-21T10:43:02;11.55;;;1.80;;
20976;SDS011;10647;51.016;3.720;2022-08-21T10:48:08;8.63;;;1.52;;
20976;SDS011;10647;51.016;3.720;2022-08-21T10:50:39;10.08;;;1.82;;
20976;SDS011;10647;51.016;3.720;2022-08-21T10:55:56;8.45;;;1.72;;
20976;SDS011;10647;51.016;3.720;2022-08-21T10:58:36;8.73;;;1.67;;
20976;SDS011;10647;51.016;3.720;2022-08-21T11:00:58;6.30;;;1.40;;
20976;SDS011;10647;51.016;3.720;2022-08-21T11:03:50;8.88;;;1.90;;
20976;SDS011;10647;51.016;3.720;2022-08-21T11:06:24;6.03;;;1.85;;
20976;SDS011;10647;51.016;3.720;2022-08-21T11:09:04;10.72;;;1.95;;
20976;SDS011;10647;51.016;3.720;2022-08-21T11:11:44;8.78;;;1.62;;
20976;SDS011;10647;51.016;3.720;2022-08-21T11:19:40;6.28;;;1.50;;
20976;SDS011;10647;51.016;3.720;2022-08-21T11:22:23;10.08;;;2.25;;
20976;SDS011;10647;51.016;3.720;2022-08-21T11:24:56;13.38;;;2.30;;
20976;SDS011;10647;51.016;3.720;2022-08-21T11:30:05;10.32;;;2.20;;
20976;SDS011;10647;51.016;3.720;2022-08-21T11:35:34;10.25;;;2.10;;
20976;SDS011;10647;51.016;3.720;2022-08-21T11:38:19;10.63;;;2.05;;
20976;SDS011;10647;51.016;3.720;2022-08-21T11:40:54;9.00;;;2.52;;
20976;SDS011;10647;51.016;3.720;2022-08-21T11:51:40;9.28;;;2.20;;
20976;SDS011;10647;51.016;3.720;2022-08-21T11:54:41;9.80;;;2.00;;
20976;SDS011;10647;51.016;3.720;2022-08-21T11:57:08;8.05;;;1.80;;
20976;SDS011;10647;51.016;3.720;2022-08-21T12:00:40;9.78;;;1.87;;
20976;SDS011;10647;51.016;3.720;2022-08-21T12:02:24;11.15;;;2.05;;
20976;SDS011;10647;51.016;3.720;2022-08-21T12:04:59;10.60;;;1.90;;
20976;SDS011;10647;51.016;3.720;2022-08-21T12:07:42;9.40;;;2.08;;
20976;SDS011;10647;51.016;3.720;2022-08-21T12:12:48;10.38;;;2.00;;
20976;SDS011;10647;51.016;3.720;2022-08-21T12:17:56;9.08;;;2.08;;
20976;SDS011;10647;51.016;3.720;2022-08-21T12:28:30;8.23;;;1.98;;
20976;SDS011;10647;51.016;3.720;2022-08-21T12:30:58;8.08;;;1.95;;
20976;SDS011;10647;51.016;3.720;2022-08-21T12:33:47;8.65;;;2.10;;
20976;SDS011;10647;51.016;3.720;2022-08-21T12:36:13;7.50;;;1.82;;
20976;SDS011;10647;51.016;3.720;2022-08-21T12:38:52;8.28;;;1.82;;
20976;SDS011;10647;51.016;3.720;2022-08-21T12:41:33;10.53;;;1.87;;
20976;SDS011;10647;51.016;3.720;2022-08-21T12:44:07;8.95;;;1.80;;
20976;SDS011;10647;51.016;3.720;2022-08-21T12:46:56;10.28;;;2.62;;
20976;SDS011;10647;51.016;3.720;2022-08-21T12:49:19;14.43;;;2.10;;
20976;SDS011;10647;51.016;3.720;2022-08-21T12:52:00;11.22;;;2.20;;
20976;SDS011;10647;51.016;3.720;2022-08-21T12:54:32;8.55;;;2.00;;
20976;SDS011;10647;51.016;3.720;2022-08-21T12:57:03;12.18;;;1.90;;
20976;SDS011;10647;51.016;3.720;2022-08-21T12:59:32;11.83;;;2.50;;
20976;SDS011;10647;51.016;3.720;2022-08-21T13:02:03;7.22;;;1.72;;
20976;SDS011;10647;51.016;3.720;2022-08-21T13:04:36;11.53;;;2.25;;
20976;SDS011;10647;51.016;3.720;2022-08-21T13:07:07;9.08;;;2.25;;
20976;SDS011;10647;51.016;3.720;2022-08-21T13:09:46;7.37;;;1.95;;
20976;SDS011;10647;51.016;3.720;2022-08-21T13:12:20;8.55;;;2.30;;
20976;SDS011;10647;51.016;3.720;2022-08-21T13:14:49;8.60;;;1.67;;
20976;SDS011;10647;51.016;3.720;2022-08-21T13:17:20;9.78;;;2.52;;
20976;SDS011;10647;51.016;3.720;2022-08-21T13:19:53;8.83;;;1.90;;
20976;SDS011;10647;51.016;3.720;2022-08-21T13:22:23;8.58;;;1.70;;
20976;SDS011;10647;51.016;3.720;2022-08-21T13:24:51;5.15;;;1.55;;
20976;SDS011;10647;51.016;3.720;2022-08-21T13:27:21;9.28;;;1.77;;
20976;SDS011;10647;51.016;3.720;2022-08-21T13:32:46;9.45;;;1.82;;
20976;SDS011;10647;51.016;3.720;2022-08-21T13:35:45;10.68;;;1.95;;
20976;SDS011;10647;51.016;3.720;2022-08-21T13:38:29;7.80;;;1.90;;
20976;SDS011;10647;51.016;3.720;2022-08-21T13:40:59;6.45;;;1.70;;
20976;SDS011;10647;51.016;3.720;2022-08-21T13:43:44;6.75;;;1.67;;
20976;SDS011;10647;51.016;3.720;2022-08-21T13:46:14;11.78;;;2.20;;
20976;SDS011;10647;51.016;3.720;2022-08-21T13:48:43;9.38;;;1.87;;
20976;SDS011;10647;51.016;3.720;2022-08-21T13:51:11;7.75;;;1.55;;
20976;SDS011;10647;51.016;3.720;2022-08-21T13:56:22;6.40;;;1.70;;
20976;SDS011;10647;51.016;3.720;2022-08-21T13:58:52;7.62;;;1.67;;
20976;SDS011;10647;51.016;3.720;2022-08-21T14:01:28;10.95;;;2.12;;
20976;SDS011;10647;51.016;3.720;2022-08-21T14:04:07;9.55;;;2.05;;
20976;SDS011;10647;51.016;3.720;2022-08-21T14:06:35;6.12;;;1.82;;
20976;SDS011;10647;51.016;3.720;2022-08-21T14:09:19;6.60;;;1.60;;
20976;SDS011;10647;51.016;3.720;2022-08-21T14:11:59;8.00;;;2.08;;
20976;SDS011;10647;51.016;3.720;2022-08-21T14:14:32;7.17;;;1.52;;
20976;SDS011;10647;51.016;3.720;2022-08-21T14:17:03;12.37;;;2.12;;
20976;SDS011;10647;51.016;3.720;2022-08-21T14:19:41;9.45;;;2.00;;
20976;SDS011;10647;51.016;3.720;2022-08-21T14:25:14;8.25;;;1.80;;
20976;SDS011;10647;51.016;3.720;2022-08-21T14:27:52;7.62;;;1.95;;
20976;SDS011;10647;51.016;3.720;2022-08-21T14:30:31;8.20;;;1.90;;
20976;SDS011;10647;51.016;3.720;2022-08-21T14:33:01;8.13;;;1.72;;
20976;SDS011;10647;51.016;3.720;2022-08-21T14:35:29;9.00;;;1.60;;
20976;SDS011;10647;51.016;3.720;2022-08-21T14:37:57;9.68;;;2.10;;
20976;SDS011;10647;51.016;3.720;2022-08-21T14:40:25;11.15;;;2.02;;
20976;SDS011;10647;51.016;3.720;2022-08-21T14:42:53;10.82;;;2.70;;
20976;SDS011;10647;51.016;3.720;2022-08-21T14:47:52;9.18;;;2.00;;
20976;SDS011;10647;51.016;3.720;2022-08-21T14:50:20;7.35;;;1.77;;
20976;SDS011;10647;51.016;3.720;2022-08-21T14:52:48;10.00;;;1.85;;
20976;SDS011;10647;51.016;3.720;2022-08-21T14:55:17;7.67;;;1.85;;
20976;SDS011;10647;51.016;3.720;2022-08-21T14:57:46;7.83;;;1.90;;
20976;SDS011;10647;51.016;3.720;2022-08-21T15:00:17;9.80;;;1.90;;
20976;SDS011;10647;51.016;3.720;2022-08-21T15:02:47;10.05;;;1.95;;
20976;SDS011;10647;51.016;3.720;2022-08-21T15:05:15;7.78;;;1.70;;
20976;SDS011;10647;51.016;3.720;2022-08-21T15:07:43;11.15;;;2.25;;
20976;SDS011;10647;51.016;3.720;2022-08-21T15:12:45;8.35;;;1.62;;
20976;SDS011;10647;51.016;3.720;2022-08-21T15:15:14;12.82;;;2.20;;
20976;SDS011;10647;51.016;3.720;2022-08-21T15:17:42;12.10;;;2.25;;
20976;SDS011;10647;51.016;3.720;2022-08-21T15:20:09;8.40;;;1.72;;
20976;SDS011;10647;51.016;3.720;2022-08-21T15:22:40;8.58;;;1.90;;
20976;SDS011;10647;51.016;3.720;2022-08-21T15:28:14;9.25;;;2.10;;
20976;SDS011;10647;51.016;3.720;2022-08-21T15:30:48;11.20;;;2.20;;
20976;SDS011;10647;51.016;3.720;2022-08-21T15:33:16;10.05;;;2.00;;
20976;SDS011;10647;51.016;3.720;2022-08-21T15:35:45;10.00;;;2.12;;
20976;SDS011;10647;51.016;3.720;2022-08-21T15:38:13;8.48;;;2.05;;
20976;SDS011;10647;51.016;3.720;2022-08-21T15:40:41;9.50;;;2.02;;
20976;SDS011;10647;51.016;3.720;2022-08-21T15:43:15;8.25;;;2.08;;
20976;SDS011;10647;51.016;3.720;2022-08-21T15:45:49;8.68;;;2.22;;
20976;SDS011;10647;51.016;3.720;2022-08-21T15:48:18;8.00;;;2.15;;
20976;SDS011;10647;51.016;3.720;2022-08-21T15:50:46;9.45;;;2.12;;
20976;SDS011;10647;51.016;3.720;2022-08-21T15:53:14;9.63;;;2.17;;
20976;SDS011;10647;51.016;3.720;2022-08-21T15:55:42;10.40;;;2.37;;
20976;SDS011;10647;51.016;3.720;2022-08-21T15:58:13;8.43;;;1.87;;
20976;SDS011;10647;51.016;3.720;2022-08-21T16:00:44;8.68;;;1.87;;
20976;SDS011;10647;51.016;3.720;2022-08-21T16:03:15;8.88;;;1.98;;
20976;SDS011;10647;51.016;3.720;2022-08-21T16:05:44;9.90;;;2.25;;
20976;SDS011;10647;51.016;3.720;2022-08-21T16:08:14;9.55;;;2.10;;
20976;SDS011;10647;51.016;3.720;2022-08-21T16:10:42;8.93;;;2.02;;
20976;SDS011;10647;51.016;3.720;2022-08-21T16:13:18;8.05;;;2.17;;
20976;SDS011;10647;51.016;3.720;2022-08-21T16:15:48;7.72;;;1.80;;
20976;SDS011;10647;51.016;3.720;2022-08-21T16:18:16;9.20;;;1.98;;
20976;SDS011;10647;51.016;3.720;2022-08-21T16:20:44;9.20;;;2.20;;
20976;SDS011;10647;51.016;3.720;2022-08-21T16:23:12;6.53;;;2.00;;
20976;SDS011;10647;51.016;3.720;2022-08-21T16:25:40;9.48;;;2.37;;
20976;SDS011;10647;51.016;3.720;2022-08-21T16:28:10;9.80;;;2.22;;
20976;SDS011;10647;51.016;3.720;2022-08-21T16:30:40;10.10;;;2.25;;
20976;SDS011;10647;51.016;3.720;2022-08-21T16:33:13;8.18;;;2.05;;
20976;SDS011;10647;51.016;3.720;2022-08-21T16:35:50;8.58;;;2.15;;
20976;SDS011;10647;51.016;3.720;2022-08-21T16:38:18;10.70;;;2.72;;
20976;SDS011;10647;51.016;3.720;2022-08-21T16:40:45;8.35;;;1.90;;
20976;SDS011;10647;51.016;3.720;2022-08-21T16:43:13;12.23;;;2.60;;
20976;SDS011;10647;51.016;3.720;2022-08-21T16:45:41;8.55;;;2.30;;
20976;SDS011;10647;51.016;3.720;2022-08-21T16:48:09;9.85;;;2.50;;
20976;SDS011;10647;51.016;3.720;2022-08-21T16:50:37;8.15;;;2.10;;
20976;SDS011;10647;51.016;3.720;2022-08-21T16:53:05;9.90;;;2.15;;
20976;SDS011;10647;51.016;3.720;2022-08-21T16:55:36;9.03;;;1.98;;
20976;SDS011;10647;51.016;3.720;2022-08-21T16:58:06;10.20;;;2.17;;
20976;SDS011;10647;51.016;3.720;2022-08-21T17:00:34;10.80;;;2.30;;
20976;SDS011;10647;51.016;3.720;2022-08-21T17:03:02;7.78;;;2.30;;
20976;SDS011;10647;51.016;3.720;2022-08-21T17:05:30;9.50;;;2.17;;
20976;SDS011;10647;51.016;3.720;2022-08-21T17:07:58;9.28;;;2.17;;
20976;SDS011;10647;51.016;3.720;2022-08-21T17:10:26;11.78;;;2.10;;
20976;SDS011;10647;51.016;3.720;2022-08-21T17:12:54;9.65;;;2.22;;
20976;SDS011;10647;51.016;3.720;2022-08-21T17:15:25;12.43;;;2.52;;
20976;SDS011;10647;51.016;3.720;2022-08-21T17:17:55;12.15;;;2.55;;
20976;SDS011;10647;51.016;3.720;2022-08-21T17:20:22;9.33;;;1.98;;
20976;SDS011;10647;51.016;3.720;2022-08-21T17:22:51;9.65;;;2.20;;
20976;SDS011;10647;51.016;3.720;2022-08-21T17:25:19;8.90;;;2.37;;
20976;SDS011;10647;51.016;3.720;2022-08-21T17:27:46;11.73;;;2.40;;